Hovedside
METAR-TAF:

METAR-TAF

Lufthavner :

Midway, USA

breddegrad: 28-13N, lengdegrad: 177-22W, høyde over havet: 4 m

METAR: fraværende

Tid: 16:08 (02:08 UTC)

Varsel

Denne rapporten ble laget for 2 timer og 18 minutter siden, klokken 23:50 UTC
Varsel gyldig fra 20. klokken 00 UTC til 20. klokken 24 UTC
Vind 10 kt fra Sør
Sikt: 10 km
Skyfri himmel

TAF: PMDY 192350Z 2000/2024 19010KT P6SM SKC AMD NOT SKED

Værobservasjoner og værvarsel for over 4000 flyplasser (METAR- og TAF-rapporter).

Tilgjengelige stasjoner er representert av de røde og gule prikkene på kartet.

Hold musepekeren over prikken for å se navnet på stasjonen.

Klikk så for å se værobservasjoner og -varsler.

For å forandre kartet kan du klikke på den grønne knappen med svart kryss for å zoome inn, på den grønne knappen med strek for å zoome ut, eller på de grønne pilene for å se tilstøtende kart.


METAR-TAF: